Time;durP1;ratioP1;P1;durP2;ratioP2;P2;SDS_P1;SDS_P2;PMS_P1;PMS_P2;Temp;Humidity;BMP_temperature;BMP_pressure;BME280_temperature;BME280_humidity;BME280_pressure;Samples;Min_cycle;Max_cycle;Signal;HPM_P1;HPM_P2
2024/04/01 00:02:18;;;;;;;11.97;6.10;;;;;;;-146.04;100.00;56920.13;4962551;28;20199;-68
2024/04/01 00:04:43;;;;;;;7.30;5.50;;;;;;;-146.04;100.00;56920.13;4959928;28;20517;-68
2024/04/01 00:07:09;;;;;;;12.40;6.13;;;;;;;-146.04;100.00;56920.13;4966334;28;20302;-68
2024/04/01 00:09:34;;;;;;;10.33;6.40;;;;;;;-146.04;100.00;56920.13;4971226;28;20219;-68
2024/04/01 00:12:00;;;;;;;7.93;6.57;;;;;;;-146.04;100.00;56920.13;4967626;28;20290;-68
2024/04/01 00:14:25;;;;;;;11.07;6.53;;;;;;;-146.04;100.00;56920.13;4968331;28;20287;-68
2024/04/01 00:16:50;;;;;;;11.67;7.07;;;;;;;-146.04;100.00;56920.13;4966591;28;21529;-68
2024/04/01 00:19:15;;;;;;;14.50;6.57;;;;;;;-146.04;100.00;56920.13;4969456;28;20219;-68
2024/04/01 00:21:42;;;;;;;12.60;6.53;;;;;;;-146.04;100.00;56920.13;4960716;28;20272;-68
2024/04/01 00:24:07;;;;;;;9.17;5.87;;;;;;;-146.04;100.00;56920.13;4968667;28;20203;-69
2024/04/01 00:26:32;;;;;;;7.27;5.43;;;;;;;-146.04;100.00;56920.13;4967643;28;20203;-69
2024/04/01 00:28:58;;;;;;;9.77;6.03;;;;;;;-146.04;100.00;56920.13;4961076;28;20192;-69
2024/04/01 00:31:29;;;;;;;10.97;6.63;;;;;;;-146.04;100.00;56920.13;4969903;28;20212;-70
2024/04/01 00:33:57;;;;;;;8.53;6.13;;;;;;;-146.04;100.00;56920.13;4967423;28;20228;-68
2024/04/01 00:36:23;;;;;;;11.10;7.00;;;;;;;-146.04;100.00;56920.13;4970392;28;20216;-68
2024/04/01 00:38:50;;;;;;;10.60;6.07;;;;;;;-146.04;100.00;56920.13;4971877;28;20654;-68
2024/04/01 00:41:16;;;;;;;9.20;6.50;;;;;;;-146.04;100.00;56920.13;4965886;28;20181;-70
2024/04/01 00:43:42;;;;;;;12.30;7.00;;;;;;;-146.04;100.00;56920.13;4967898;28;20197;-70
2024/04/01 00:46:07;;;;;;;10.30;6.70;;;;;;;-146.04;100.00;56920.13;4964645;28;20200;-69
2024/04/01 00:48:32;;;;;;;9.93;6.13;;;;;;;-146.04;100.00;56920.13;4970346;28;20663;-70
2024/04/01 00:50:59;;;;;;;9.47;6.70;;;;;;;-146.04;100.00;56920.13;4969046;28;20195;-69
2024/04/01 00:53:24;;;;;;;8.83;6.00;;;;;;;-146.04;100.00;56920.13;4975923;28;20188;-70
2024/04/01 00:55:50;;;;;;;9.43;6.50;;;;;;;-146.04;100.00;56920.13;4971915;28;20199;-68
2024/04/01 00:58:15;;;;;;;8.57;5.70;;;;;;;-146.04;100.00;56920.13;4974725;28;20303;-68
2024/04/01 01:00:42;;;;;;;8.63;5.87;;;;;;;-146.04;100.00;56920.13;4963582;28;20189;-69
2024/04/01 01:03:08;;;;;;;9.77;6.07;;;;;;;-146.04;100.00;56920.13;4965470;28;20351;-68
2024/04/01 01:05:36;;;;;;;11.37;6.20;;;;;;;-146.04;100.00;56920.13;4963841;28;20710;-69
2024/04/01 01:08:01;;;;;;;10.20;6.23;;;;;;;-146.04;100.00;56920.13;4983038;23;20734;-72
2024/04/01 01:10:27;;;;;;;10.57;6.30;;;;;;;-146.04;100.00;56920.13;4979894;28;20191;-70
2024/04/01 01:12:52;;;;;;;14.00;7.43;;;;;;;-146.04;100.00;56920.13;4984761;28;20215;-71
2024/04/01 01:15:18;;;;;;;12.30;8.00;;;;;;;-146.04;100.00;56920.13;4995105;28;20228;-71
2024/04/01 01:17:45;;;;;;;9.63;6.53;;;;;;;-146.04;100.00;56920.13;4971998;28;20303;-72
2024/04/01 01:20:13;;;;;;;7.90;5.73;;;;;;;-146.04;100.00;56920.13;4969897;28;20660;-71
2024/04/01 01:22:40;;;;;;;9.13;5.77;;;;;;;-146.04;100.00;56920.13;4969301;28;20180;-71
2024/04/01 01:25:07;;;;;;;8.67;6.33;;;;;;;-146.04;100.00;56920.13;4970468;28;20189;-71
2024/04/01 01:27:42;;;;;;;10.00;5.83;;;;;;;-146.04;100.00;56920.13;4963832;28;20199;-71
2024/04/01 01:30:17;;;;;;;9.87;5.57;;;;;;;-146.04;100.00;56920.13;4970883;28;20191;-70
2024/04/01 01:32:45;;;;;;;8.43;5.63;;;;;;;-146.04;100.00;56920.13;4964724;28;20599;-71
2024/04/01 01:35:12;;;;;;;10.00;5.70;;;;;;;-146.04;100.00;56920.13;4970945;28;20702;-71
2024/04/01 01:37:38;;;;;;;6.37;5.00;;;;;;;-146.04;100.00;56920.13;4968267;28;20250;-71
2024/04/01 01:40:04;;;;;;;8.73;5.13;;;;;;;-146.04;100.00;56920.13;4970844;28;20188;-71
2024/04/01 01:42:29;;;;;;;6.20;5.43;;;;;;;-146.04;100.00;56920.13;4978695;28;20192;-71
2024/04/01 01:44:55;;;;;;;9.80;5.43;;;;;;;-146.04;100.00;56920.13;4962328;28;20191;-73
2024/04/01 01:47:20;;;;;;;9.50;4.97;;;;;;;-146.04;100.00;56920.13;4970429;28;20640;-74
2024/04/01 01:49:45;;;;;;;9.83;6.17;;;;;;;-146.04;100.00;56920.13;4979424;28;20192;-73
2024/04/01 01:52:11;;;;;;;6.67;4.80;;;;;;;-146.04;100.00;56920.13;4978246;28;20582;-73
2024/04/01 01:54:36;;;;;;;7.50;5.17;;;;;;;-146.04;100.00;56920.13;4974871;28;20221;-74
2024/04/01 01:57:01;;;;;;;10.63;5.00;;;;;;;-146.04;100.00;56920.13;4971148;28;20240;-74
2024/04/01 01:59:27;;;;;;;5.97;4.77;;;;;;;-146.04;100.00;56920.13;4976926;28;20234;-74
2024/04/01 02:01:52;;;;;;;7.00;5.30;;;;;;;-146.04;100.00;56920.13;4977356;28;20269;-73
2024/04/01 02:04:17;;;;;;;10.73;5.27;;;;;;;-146.04;100.00;56920.13;4969593;28;20267;-73
2024/04/01 02:06:43;;;;;;;6.03;4.60;;;;;;;-146.04;100.00;56920.13;4974711;28;20258;-74
2024/04/01 02:09:08;;;;;;;6.27;4.70;;;;;;;-146.04;100.00;56920.13;4977442;28;20290;-74
2024/04/01 02:11:33;;;;;;;7.50;5.50;;;;;;;-146.04;100.00;56920.13;4975157;28;20728;-73
2024/04/01 02:13:59;;;;;;;5.73;4.40;;;;;;;-146.04;100.00;56920.13;4977188;28;20549;-73
2024/04/01 02:16:24;;;;;;;6.23;5.07;;;;;;;-146.04;100.00;56920.13;4970278;28;20275;-74
2024/04/01 02:18:49;;;;;;;7.80;4.30;;;;;;;-146.04;100.00;56920.13;4972848;28;20679;-74
2024/04/01 02:21:18;;;;;;;6.43;4.47;;;;;;;-146.04;100.00;56920.13;4974362;28;20184;-73
2024/04/01 02:23:44;;;;;;;4.30;3.90;;;;;;;-146.04;100.00;56920.13;4967723;28;20196;-74
2024/04/01 02:26:09;;;;;;;7.57;5.30;;;;;;;-146.04;100.00;56920.13;4967454;28;20219;-74
2024/04/01 02:28:37;;;;;;;5.27;4.13;;;;;;;-146.04;100.00;56920.13;4974331;28;20736;-74
2024/04/01 02:31:03;;;;;;;5.27;4.43;;;;;;;-146.04;100.00;56920.13;4974128;28;20275;-73
2024/04/01 02:33:28;;;;;;;6.47;4.43;;;;;;;-146.04;100.00;56920.13;4975149;28;20294;-74
2024/04/01 02:35:54;;;;;;;5.07;4.33;;;;;;;-146.04;100.00;56920.13;4989213;28;20242;-74
2024/04/01 02:38:20;;;;;;;5.87;4.10;;;;;;;-146.04;100.00;56920.13;4972174;28;20223;-74
2024/04/01 02:40:45;;;;;;;4.30;3.63;;;;;;;-146.04;100.00;56920.13;4974569;28;20196;-74
2024/04/01 02:43:12;;;;;;;5.23;4.10;;;;;;;-146.04;100.00;56920.13;4963482;28;20771;-74
2024/04/01 02:45:37;;;;;;;7.23;3.80;;;;;;;-146.04;100.00;56920.13;4969305;28;20226;-74
2024/04/01 02:48:03;;;;;;;7.17;4.90;;;;;;;-146.04;100.00;56920.13;4971807;28;20231;-73
2024/04/01 02:50:28;;;;;;;7.20;4.87;;;;;;;-146.04;100.00;56920.13;4972819;28;20186;-73
2024/04/01 02:52:54;;;;;;;5.60;4.07;;;;;;;-146.04;100.00;56920.13;4978381;28;20243;-74
2024/04/01 02:55:20;;;;;;;6.20;4.40;;;;;;;-146.04;100.00;56920.13;4975694;28;20196;-74
2024/04/01 02:57:45;;;;;;;9.80;4.30;;;;;;;-146.04;100.00;56920.13;4972161;28;20216;-73
2024/04/01 03:00:18;;;;;;;7.47;4.63;;;;;;;-146.04;100.00;56920.13;4989619;28;20753;-74
2024/04/01 03:02:47;;;;;;;7.30;4.60;;;;;;;-146.04;100.00;56920.13;4966033;28;20188;-73
2024/04/01 03:05:16;;;;;;;6.37;4.50;;;;;;;-146.04;100.00;56920.13;4973992;28;20188;-73
2024/04/01 03:07:43;;;;;;;7.60;4.00;;;;;;;-146.04;100.00;56920.13;4972615;28;20222;-73
2024/04/01 03:10:11;;;;;;;4.30;3.90;;;;;;;-146.04;100.00;56920.13;4985792;28;20251;-73
2024/04/01 03:12:37;;;;;;;5.70;4.57;;;;;;;-146.04;100.00;56920.13;4972370;28;20335;-73
2024/04/01 03:15:03;;;;;;;4.63;3.97;;;;;;;-146.04;100.00;56920.13;4973463;28;20689;-74
2024/04/01 03:17:31;;;;;;;10.40;4.70;;;;;;;-146.04;100.00;56920.13;4970573;28;20244;-73
2024/04/01 03:19:56;;;;;;;5.30;4.50;;;;;;;-146.04;100.00;56920.13;4973590;28;20196;-75
2024/04/01 03:22:22;;;;;;;11.63;4.60;;;;;;;-146.04;100.00;56920.13;4968003;28;20571;-74
2024/04/01 03:24:49;;;;;;;4.53;3.93;;;;;;;-146.04;100.00;56920.13;4970862;28;20283;-74
2024/04/01 03:27:14;;;;;;;4.73;3.80;;;;;;;-146.04;100.00;56920.13;4975358;28;20304;-73
2024/04/01 03:29:39;;;;;;;5.13;4.27;;;;;;;-146.04;100.00;56920.13;5013051;28;20260;-74
2024/04/01 03:32:05;;;;;;;8.07;4.50;;;;;;;-146.04;100.00;56920.13;5012641;28;20219;-74
2024/04/01 03:34:30;;;;;;;4.27;3.20;;;;;;;-146.04;100.00;56920.13;4996384;28;20204;-74
2024/04/01 03:36:57;;;;;;;5.30;4.00;;;;;;;-146.04;100.00;56920.13;5013606;28;20216;-74
2024/04/01 03:39:23;;;;;;;4.50;3.87;;;;;;;-146.04;100.00;56920.13;4980755;28;20191;-74
2024/04/01 03:41:48;;;;;;;4.27;3.70;;;;;;;-146.04;100.00;56920.13;4966785;28;20271;-74
2024/04/01 03:44:14;;;;;;;6.50;3.77;;;;;;;-146.04;100.00;56920.13;4972855;28;20188;-74
2024/04/01 03:46:39;;;;;;;6.53;4.07;;;;;;;-146.04;100.00;56920.13;4985260;28;20200;-74
2024/04/01 03:49:04;;;;;;;4.70;3.30;;;;;;;-146.04;100.00;56920.13;4972794;28;20184;-73
2024/04/01 03:51:30;;;;;;;5.00;4.00;;;;;;;-146.04;100.00;56920.13;4971559;28;20255;-73
2024/04/01 03:53:55;;;;;;;4.00;3.43;;;;;;;-146.04;100.00;56920.13;4973206;28;20195;-73
2024/04/01 03:56:20;;;;;;;4.70;3.50;;;;;;;-146.04;100.00;56920.13;4968824;28;20328;-73
2024/04/01 03:58:46;;;;;;;6.23;3.47;;;;;;;-146.04;100.00;56920.13;4975609;28;20237;-73
2024/04/01 04:01:11;;;;;;;4.37;3.53;;;;;;;-146.04;100.00;56920.13;5000351;28;20176;-74
2024/04/01 04:03:37;;;;;;;4.07;3.67;;;;;;;-146.04;100.00;56920.13;4997095;28;20180;-74
2024/04/01 04:06:02;;;;;;;5.40;3.80;;;;;;;-146.04;100.00;56920.13;4997519;28;20185;-74
2024/04/01 04:08:28;;;;;;;4.60;3.50;;;;;;;-146.04;100.00;56920.13;4996447;28;20196;-73
2024/04/01 04:10:53;;;;;;;3.90;3.10;;;;;;;-146.04;100.00;56920.13;4981378;28;20184;-73
2024/04/01 04:13:19;;;;;;;3.93;3.47;;;;;;;-146.04;100.00;56920.13;4972104;28;20204;-73
2024/04/01 04:15:44;;;;;;;7.93;3.67;;;;;;;-146.04;100.00;56920.13;4971825;28;20197;-73
2024/04/01 04:18:09;;;;;;;5.63;3.60;;;;;;;-146.04;100.00;56920.13;4971631;28;20234;-73
2024/04/01 04:20:35;;;;;;;4.73;3.73;;;;;;;-146.04;100.00;56920.13;4968215;28;20220;-72
2024/04/01 04:23:00;;;;;;;4.67;3.90;;;;;;;-146.04;100.00;56920.13;4970900;28;20258;-73
2024/04/01 04:25:25;;;;;;;5.27;4.20;;;;;;;-146.04;100.00;56920.13;4972425;28;20192;-75
2024/04/01 04:27:51;;;;;;;7.23;4.33;;;;;;;-146.04;100.00;56920.13;4971327;28;20214;-73
2024/04/01 04:30:16;;;;;;;5.30;3.83;;;;;;;-146.04;100.00;56920.13;4977481;28;20230;-73
2024/04/01 04:32:43;;;;;;;5.23;4.07;;;;;;;-146.04;100.00;56920.13;4970727;28;20215;-73
2024/04/01 04:35:09;;;;;;;4.60;3.87;;;;;;;-146.04;100.00;56920.13;4970110;28;20664;-73
2024/04/01 04:37:37;;;;;;;4.80;4.00;;;;;;;-146.04;100.00;56920.13;4971662;28;20266;-73
2024/04/01 04:40:10;;;;;;;5.30;4.10;;;;;;;-146.04;100.00;56920.13;4965308;28;20192;-73
2024/04/01 04:42:35;;;;;;;5.60;4.07;;;;;;;-146.04;100.00;56920.13;4973554;28;20183;-73
2024/04/01 04:45:00;;;;;;;4.83;3.90;;;;;;;-146.04;100.00;56920.13;4968281;28;20625;-72
2024/04/01 04:47:26;;;;;;;4.50;3.27;;;;;;;-146.04;100.00;56920.13;4967814;28;20227;-73
2024/04/01 04:49:51;;;;;;;6.17;3.97;;;;;;;-146.04;100.00;56920.13;4972087;28;20195;-73
2024/04/01 04:52:16;;;;;;;4.37;3.97;;;;;;;-146.04;100.00;56920.13;4973482;28;20215;-73
2024/04/01 04:54:42;;;;;;;3.53;3.20;;;;;;;-146.04;100.00;56920.13;4979646;28;20196;-73
2024/04/01 04:57:07;;;;;;;6.73;3.93;;;;;;;-146.04;100.00;56920.13;4971841;28;21365;-73
2024/04/01 04:59:33;;;;;;;5.03;4.13;;;;;;;-146.04;100.00;56920.13;4974701;28;20759;-73
2024/04/01 05:02:06;;;;;;;5.40;4.10;;;;;;;-146.04;100.00;56920.13;4973221;28;20242;-73
2024/04/01 05:04:34;;;;;;;6.73;4.43;;;;;;;-146.04;100.00;56920.13;4967890;28;20368;-74
2024/04/01 05:07:01;;;;;;;6.13;4.37;;;;;;;-146.04;100.00;56920.13;4968540;28;20215;-74
2024/04/01 05:09:27;;;;;;;6.43;4.50;;;;;;;-146.04;100.00;56920.13;4967048;28;20200;-74
2024/04/01 05:11:53;;;;;;;8.30;4.70;;;;;;;-146.04;100.00;56920.13;4973014;28;20208;-74
2024/04/01 05:14:21;;;;;;;6.53;4.73;;;;;;;-146.04;100.00;56920.13;4968311;28;20196;-74
2024/04/01 05:16:47;;;;;;;6.70;4.67;;;;;;;-146.04;100.00;56920.13;4971758;28;20211;-74
2024/04/01 05:19:12;;;;;;;4.77;4.27;;;;;;;-146.04;100.00;56920.13;4969746;28;20215;-74
2024/04/01 05:21:37;;;;;;;9.00;5.93;;;;;;;-146.04;100.00;56920.13;4972128;28;20180;-74
2024/04/01 05:24:04;;;;;;;5.80;4.97;;;;;;;-146.04;100.00;56920.13;4970153;28;20711;-73
2024/04/01 05:26:29;;;;;;;5.37;4.50;;;;;;;-146.04;100.00;56920.13;4971518;28;20186;-74
2024/04/01 05:28:54;;;;;;;6.07;4.80;;;;;;;-146.04;100.00;56920.13;4967640;28;20575;-73
2024/04/01 05:31:20;;;;;;;7.13;5.03;;;;;;;-146.04;100.00;56920.13;4972243;28;20202;-73
2024/04/01 05:33:46;;;;;;;6.00;4.63;;;;;;;-146.04;100.00;56920.13;4990789;28;20216;-73
2024/04/01 05:36:11;;;;;;;7.07;5.20;;;;;;;-146.04;100.00;56920.13;4972145;28;20274;-74
2024/04/01 05:38:37;;;;;;;5.03;4.53;;;;;;;-146.04;100.00;56920.13;4966956;28;20193;-74
2024/04/01 05:41:02;;;;;;;5.20;4.70;;;;;;;-146.04;100.00;56920.13;4984645;28;20271;-74
2024/04/01 05:43:27;;;;;;;4.90;4.37;;;;;;;-146.04;100.00;56920.13;4969802;28;20191;-74
2024/04/01 05:45:53;;;;;;;6.63;4.80;;;;;;;-146.04;100.00;56920.13;4962046;28;20227;-73
2024/04/01 05:48:18;;;;;;;5.27;4.53;;;;;;;-146.04;100.00;56920.13;4970183;28;20238;-73
2024/04/01 05:50:51;;;;;;;6.73;4.50;;;;;;;-146.04;100.00;56920.13;4969824;28;20215;-73
2024/04/01 05:53:17;;;;;;;7.17;4.97;;;;;;;-146.04;100.00;56920.13;4967528;28;20216;-73
2024/04/01 05:55:42;;;;;;;4.97;4.10;;;;;;;-146.04;100.00;56920.13;4970114;28;20200;-73
2024/04/01 05:58:09;;;;;;;6.77;4.70;;;;;;;-146.04;100.00;56920.13;4973068;28;20784;-73
2024/04/01 06:00:34;;;;;;;5.67;4.67;;;;;;;-146.04;100.00;56920.13;4965543;28;20189;-73
2024/04/01 06:03:00;;;;;;;5.03;4.33;;;;;;;-146.04;100.00;56920.13;4966544;28;20177;-73
2024/04/01 06:05:26;;;;;;;9.67;5.17;;;;;;;-146.04;100.00;56920.13;4966264;28;20683;-73
2024/04/01 06:07:52;;;;;;;9.33;5.60;;;;;;;-146.04;100.00;56920.13;4965123;28;20698;-73
2024/04/01 06:10:17;;;;;;;6.13;5.53;;;;;;;-146.04;100.00;56920.13;4968799;28;20239;-74
2024/04/01 06:12:42;;;;;;;6.37;5.10;;;;;;;-146.04;100.00;56920.13;4970783;28;20261;-74
2024/04/01 06:15:07;;;;;;;5.63;5.00;;;;;;;-146.04;100.00;56920.13;4970819;28;20308;-74
2024/04/01 06:17:33;;;;;;;6.10;4.17;;;;;;;-146.04;100.00;56920.13;4966306;28;20208;-74
2024/04/01 06:19:58;;;;;;;5.23;4.13;;;;;;;-146.04;100.00;56920.13;4962770;28;20180;-74
2024/04/01 06:22:23;;;;;;;5.20;4.53;;;;;;;-146.04;100.00;56920.13;4969174;28;20177;-74
2024/04/01 06:24:50;;;;;;;5.57;4.30;;;;;;;-146.04;100.00;56920.13;4969141;28;20192;-74
2024/04/01 06:27:16;;;;;;;4.33;3.93;;;;;;;-146.04;100.00;56920.13;4973020;28;20200;-73
2024/04/01 06:29:41;;;;;;;6.97;4.57;;;;;;;-146.04;100.00;56920.13;4973826;28;20183;-73
2024/04/01 06:32:06;;;;;;;6.73;4.17;;;;;;;-146.04;100.00;56920.13;4988464;28;20739;-74
2024/04/01 06:34:32;;;;;;;5.30;4.27;;;;;;;-146.04;100.00;56920.13;4975469;28;20267;-73
2024/04/01 06:36:57;;;;;;;6.20;4.00;;;;;;;-146.04;100.00;56920.13;4971252;28;20212;-73
2024/04/01 06:39:22;;;;;;;4.70;4.23;;;;;;;-146.04;100.00;56920.13;4967499;28;20200;-74
2024/04/01 06:41:48;;;;;;;8.00;5.23;;;;;;;-146.04;100.00;56920.13;4975309;28;20690;-74
2024/04/01 06:44:13;;;;;;;5.90;4.80;;;;;;;-146.04;100.00;56920.13;4977628;28;20576;-74
2024/04/01 06:46:39;;;;;;;6.20;4.53;;;;;;;-146.04;100.00;56920.13;4972493;28;20232;-74
2024/04/01 06:49:04;;;;;;;6.60;5.07;;;;;;;-146.04;100.00;56920.13;4972331;28;20189;-74
2024/04/01 06:51:33;;;;;;;7.03;5.63;;;;;;;-146.04;100.00;56920.13;4988309;28;20281;-74
2024/04/01 06:53:59;;;;;;;8.90;6.27;;;;;;;-146.04;100.00;56920.13;4971944;28;20204;-74
2024/04/01 06:56:24;;;;;;;10.03;6.80;;;;;;;-146.04;100.00;56920.13;4980552;28;20192;-74
2024/04/01 06:58:50;;;;;;;9.47;6.07;;;;;;;-146.04;100.00;56920.13;4973314;28;20639;-74
2024/04/01 07:01:16;;;;;;;9.60;7.10;;;;;;;-146.04;100.00;56920.13;4967496;28;20290;-74
2024/04/01 07:03:41;;;;;;;8.10;6.53;;;;;;;-146.04;100.00;56920.13;4965731;28;20199;-74
2024/04/01 07:06:06;;;;;;;13.13;7.47;;;;;;;-146.04;100.00;56920.13;4973322;28;20210;-73
2024/04/01 07:08:32;;;;;;;8.55;6.68;;;;;;;-146.04;100.00;56920.13;4999610;23;20330;-69
2024/04/01 07:10:57;;;;;;;8.47;6.60;;;;;;;-146.04;100.00;56920.13;4968434;28;20327;-70
2024/04/01 07:13:23;;;;;;;9.77;6.90;;;;;;;-146.04;100.00;56920.13;4972137;28;20221;-69
2024/04/01 07:15:48;;;;;;;10.33;7.77;;;;;;;-146.04;100.00;56920.13;4971460;28;20196;-68
2024/04/01 07:18:13;;;;;;;9.40;7.50;;;;;;;-146.04;100.00;56920.13;4963809;28;20213;-69
2024/04/01 07:20:39;;;;;;;13.00;7.03;;;;;;;-146.04;100.00;56920.13;4958775;28;20192;-68
2024/04/01 07:23:04;;;;;;;7.53;6.40;;;;;;;-146.04;100.00;56920.13;4956554;28;20220;-70
2024/04/01 07:25:29;;;;;;;10.23;7.87;;;;;;;-146.04;100.00;56920.13;4955220;28;20198;-70
2024/04/01 07:27:54;;;;;;;9.23;7.60;;;;;;;-146.04;100.00;56920.13;4954074;28;20219;-69
2024/04/01 07:30:20;;;;;;;10.23;7.47;;;;;;;-146.04;100.00;56920.13;4952114;28;20200;-67
2024/04/01 07:32:45;;;;;;;13.03;7.93;;;;;;;-146.04;100.00;56920.13;4951062;28;20211;-69
2024/04/01 07:35:11;;;;;;;10.90;7.30;;;;;;;-146.04;100.00;56920.13;4953040;28;20199;-70
2024/04/01 07:37:37;;;;;;;11.02;7.28;;;;;;;-146.04;100.00;56920.13;4955949;28;20216;-70
2024/04/01 07:40:02;;;;;;;10.93;7.82;;;;;;;-146.04;100.00;56920.13;4970869;28;20196;-69
2024/04/01 07:42:28;;;;;;;10.30;8.32;;;;;;;-146.04;100.00;56920.13;4969393;28;20572;-70
2024/04/01 07:44:53;;;;;;;9.43;7.35;;;;;;;-146.04;100.00;56920.13;4974886;28;20196;-70
2024/04/01 07:47:19;;;;;;;9.35;7.60;;;;;;;-146.04;100.00;56920.13;4971623;28;20208;-70
2024/04/01 07:49:45;;;;;;;14.30;8.30;;;;;;;-146.04;100.00;56920.13;4973340;28;20559;-69
2024/04/01 07:52:11;;;;;;;8.60;7.43;;;;;;;-146.04;100.00;56920.13;4966724;28;20219;-70
2024/04/01 07:54:36;;;;;;;12.15;7.70;;;;;;;-146.04;100.00;56920.13;4951607;28;20196;-69
2024/04/01 07:57:05;;;;;;;9.55;7.72;;;;;;;-146.04;100.00;56920.13;4951282;28;20211;-68
2024/04/01 07:59:31;;;;;;;10.97;7.77;;;;;;;-146.04;100.00;56920.13;4951614;28;20211;-67
2024/04/01 08:01:57;;;;;;;8.80;6.82;;;;;;;-146.04;100.00;56920.13;4967147;28;20200;-69
2024/04/01 08:04:27;;;;;;;7.63;6.28;;;;;;;-146.04;100.00;56920.13;4960830;28;20200;-68
2024/04/01 08:06:53;;;;;;;8.82;6.53;;;;;;;-146.04;100.00;56920.13;4952006;28;20246;-69
2024/04/01 08:09:18;;;;;;;8.30;6.60;;;;;;;-146.04;100.00;56920.13;4950135;28;20276;-70
2024/04/01 08:11:46;;;;;;;7.20;6.00;;;;;;;-146.04;100.00;56920.13;4952438;28;20577;-69
2024/04/01 08:14:12;;;;;;;7.80;6.50;;;;;;;-146.04;100.00;56920.13;4950498;28;20355;-68
2024/04/01 08:16:37;;;;;;;7.03;6.10;;;;;;;-146.04;100.00;56920.13;4955814;28;20638;-68
2024/04/01 08:19:02;;;;;;;7.03;5.35;;;;;;;-146.04;100.00;56920.13;4954170;28;20184;-68
2024/04/01 08:21:28;;;;;;;7.28;5.95;;;;;;;-146.04;100.00;56920.13;4950442;28;20243;-69
2024/04/01 08:23:53;;;;;;;7.45;5.85;;;;;;;-146.04;100.00;56920.13;4953271;28;20614;-67
2024/04/01 08:26:18;;;;;;;7.15;5.20;;;;;;;-146.04;100.00;56920.13;4954739;28;20188;-68
2024/04/01 08:28:44;;;;;;;6.45;5.68;;;;;;;-146.04;100.00;56920.13;4951097;28;20301;-68
2024/04/01 08:31:09;;;;;;;6.95;5.78;;;;;;;-146.04;100.00;56920.13;4953271;28;20238;-67
2024/04/01 08:33:35;;;;;;;7.55;5.63;;;;;;;-146.04;100.00;56920.13;4956558;28;20212;-67
2024/04/01 08:36:01;;;;;;;9.95;5.32;;;;;;;-146.04;100.00;56920.13;4954838;28;20242;-68
2024/04/01 08:38:26;;;;;;;5.95;5.28;;;;;;;-146.04;100.00;56920.13;4953442;28;21819;-67
2024/04/01 08:41:05;;;;;;;7.47;5.32;;;;;;;-146.04;100.00;56920.13;4950945;28;20277;-67
2024/04/01 08:43:39;;;;;;;6.63;5.38;;;;;;;-146.04;100.00;56920.13;4952032;28;20299;-67
2024/04/01 08:46:05;;;;;;;9.05;5.13;;;;;;;-146.04;100.00;56920.13;4956603;28;20177;-71
2024/04/01 08:48:31;;;;;;;7.32;5.03;;;;;;;-146.04;100.00;56920.13;4952414;28;20208;-71
2024/04/01 08:51:03;;;;;;;4.82;4.38;;;;;;;-146.04;100.00;56920.13;4949797;28;20188;-71
2024/04/01 08:53:47;;;;;;;6.47;5.18;;;;;;;-146.04;100.00;56920.13;4951235;28;20212;-71
2024/04/01 08:56:13;;;;;;;5.80;4.47;;;;;;;-146.04;100.00;56920.13;4949066;28;20188;-70
2024/04/01 08:58:38;;;;;;;7.18;4.93;;;;;;;-146.04;100.00;56920.13;4951292;28;20207;-70
2024/04/01 09:01:04;;;;;;;6.05;4.93;;;;;;;-146.04;100.00;56920.13;4949320;28;20782;-71
2024/04/01 09:03:29;;;;;;;6.13;5.38;;;;;;;-146.04;100.00;56920.13;4951678;28;20600;-71
2024/04/01 09:05:57;;;;;;;6.55;4.32;;;;;;;-146.04;100.00;56920.13;4948731;28;20184;-70
2024/04/01 09:08:23;;;;;;;8.43;4.15;;;;;;;-146.04;100.00;56920.13;4951037;28;20565;-71
2024/04/01 09:10:52;;;;;;;3.42;3.13;;;;;;;-146.04;100.00;56920.13;4959178;28;20672;-71
2024/04/01 09:13:19;;;;;;;6.47;4.20;;;;;;;-146.04;100.00;56920.13;4963049;28;20318;-72
2024/04/01 09:15:48;;;;;;;5.03;3.80;;;;;;;-146.04;100.00;56920.13;4953719;28;20184;-71
2024/04/01 09:18:14;;;;;;;4.15;3.75;;;;;;;-146.04;100.00;56920.13;4953757;28;20200;-70
2024/04/01 09:20:41;;;;;;;3.85;3.25;;;;;;;-146.04;100.00;56920.13;4950990;28;20188;-71
2024/04/01 09:23:07;;;;;;;3.45;3.15;;;;;;;-146.04;100.00;56920.13;4951308;28;20177;-71
2024/04/01 09:25:32;;;;;;;6.47;3.80;;;;;;;-146.04;100.00;56920.13;4951219;28;20575;-71
2024/04/01 09:27:57;;;;;;;7.25;3.92;;;;;;;-146.04;100.00;56920.13;4951667;28;20208;-71
2024/04/01 09:30:24;;;;;;;4.03;3.30;;;;;;;-146.04;100.00;56920.13;4953675;28;20190;-71
2024/04/01 09:32:50;;;;;;;6.65;3.03;;;;;;;-146.04;100.00;56920.13;4952531;28;20208;-71
2024/04/01 09:35:16;;;;;;;4.82;3.63;;;;;;;-146.04;100.00;56920.13;4952685;28;20180;-71
2024/04/01 09:37:42;;;;;;;3.60;3.05;;;;;;;-146.04;100.00;56920.13;4951042;28;20249;-72
2024/04/01 09:40:08;;;;;;;5.07;3.65;;;;;;;-146.04;100.00;56920.13;4956346;28;20199;-71
2024/04/01 09:42:35;;;;;;;6.53;4.00;;;;;;;-146.04;100.00;56920.13;4951446;28;20678;-71
2024/04/01 09:45:01;;;;;;;8.30;4.55;;;;;;;-146.04;100.00;56920.13;4953254;28;20201;-71
2024/04/01 09:47:26;;;;;;;5.35;3.75;;;;;;;-146.04;100.00;56920.13;4954505;28;20267;-72
2024/04/01 09:49:52;;;;;;;12.65;4.20;;;;;;;-146.04;100.00;56920.13;4952666;28;20193;-71
2024/04/01 09:52:18;;;;;;;5.72;4.00;;;;;;;-146.04;100.00;56920.13;4951888;28;20216;-72
2024/04/01 09:54:49;;;;;;;7.60;5.05;;;;;;;-146.04;100.00;56920.13;4952300;28;20207;-71
2024/04/01 09:57:33;;;;;;;7.85;4.57;;;;;;;-146.04;100.00;56920.13;4950526;28;20220;-70
2024/04/01 10:00:09;;;;;;;7.18;4.60;;;;;;;-146.04;100.00;56920.13;4947401;28;20188;-72
2024/04/01 10:02:47;;;;;;;7.68;3.83;;;;;;;-146.04;100.00;56920.13;4954573;28;20214;-71
2024/04/01 10:05:37;;;;;;;6.18;3.55;;;;;;;-146.04;100.00;56920.13;4955438;28;20195;-72
2024/04/01 10:08:40;;;;;;;6.40;3.78;;;;;;;-146.04;100.00;56920.13;4954349;28;20598;-72
2024/04/01 10:11:28;;;;;;;4.53;3.70;;;;;;;-146.04;100.00;56920.13;4954239;28;20184;-72
2024/04/01 10:14:12;;;;;;;8.93;4.60;;;;;;;-146.04;100.00;56920.13;4953419;28;20235;-71
2024/04/01 10:16:53;;;;;;;7.70;3.67;;;;;;;-146.04;100.00;56920.13;4956974;28;20279;-71
2024/04/01 10:19:32;;;;;;;8.45;4.60;;;;;;;-146.04;100.00;56920.13;4960874;28;20192;-71
2024/04/01 10:22:12;;;;;;;4.00;3.47;;;;;;;-146.04;100.00;56920.13;4971190;28;20183;-70
2024/04/01 10:25:25;;;;;;;5.85;3.42;;;;;;;-146.04;100.00;56920.13;4956722;28;20245;-72
2024/04/01 10:28:06;;;;;;;4.22;3.15;;;;;;;-146.04;100.00;56920.13;4959497;28;20215;-71
2024/04/01 10:31:09;;;;;;;8.98;3.45;;;;;;;-146.04;100.00;56920.13;4959991;28;20194;-70
2024/04/01 10:33:43;;;;;;;7.60;2.90;;;;;;;-146.04;100.00;56920.13;4961082;28;20215;-69
2024/04/01 10:36:38;;;;;;;5.25;3.05;;;;;;;-146.04;100.00;56920.13;4962654;28;20226;-71
2024/04/01 10:39:19;;;;;;;4.47;3.33;;;;;;;-146.04;100.00;56920.13;4962582;28;20842;-72
2024/04/01 10:41:59;;;;;;;9.50;2.85;;;;;;;-146.04;100.00;56920.13;4957835;28;20220;-71
2024/04/01 10:44:36;;;;;;;7.05;2.88;;;;;;;-146.04;100.00;56920.13;4951455;28;20674;-71
2024/04/01 10:47:17;;;;;;;4.75;2.72;;;;;;;-146.04;100.00;56920.13;4957875;28;20265;-71
2024/04/01 10:49:42;;;;;;;5.97;2.97;;;;;;;-146.04;100.00;56920.13;4955526;28;20923;-71
2024/04/01 10:52:37;;;;;;;5.45;3.03;;;;;;;-146.04;100.00;56920.13;4956036;28;20865;-71
2024/04/01 10:55:03;;;;;;;7.85;3.80;;;;;;;-146.04;100.00;56920.13;4959474;28;20204;-71
2024/04/01 10:57:56;;;;;;;8.63;2.72;;;;;;;-146.04;100.00;56920.13;4958565;28;20211;-70
2024/04/01 11:00:30;;;;;;;4.05;2.15;;;;;;;-146.04;100.00;56920.13;4956292;28;20286;-71
2024/04/01 11:03:20;;;;;;;6.00;2.00;;;;;;;-146.04;100.00;56920.13;4956042;28;20186;-70
2024/04/01 11:06:01;;;;;;;5.53;2.60;;;;;;;-146.04;100.00;56920.13;4951511;28;20200;-71
2024/04/01 11:08:51;;;;;;;7.53;2.40;;;;;;;-146.04;100.00;56920.13;4953414;28;20216;-71
2024/04/01 11:11:16;;;;;;;4.35;2.25;;;;;;;-146.04;100.00;56920.13;4952587;28;20181;-70
2024/04/01 11:13:42;;;;;;;5.45;2.70;;;;;;;-146.04;100.00;56920.13;4957944;28;20722;-71